createdAt,value
2019-03-21T00:03:23.828Z,100.00
2019-03-21T00:08:44.693Z,100.00
2019-03-21T00:14:07.451Z,100.00
2019-03-21T00:19:27.604Z,100.00
2019-03-21T00:24:47.591Z,100.00
2019-03-21T00:30:17.576Z,100.00
2019-03-21T00:35:38.470Z,100.00
2019-03-21T00:40:56.113Z,100.00
2019-03-21T00:46:14.710Z,100.00
2019-03-21T00:51:33.284Z,100.00
2019-03-21T00:56:51.714Z,100.00
2019-03-21T01:02:11.276Z,100.00
2019-03-21T01:07:29.926Z,100.00
2019-03-21T01:12:48.579Z,100.00
2019-03-21T01:18:08.224Z,100.00
2019-03-21T01:23:29.748Z,100.00
2019-03-21T01:28:49.847Z,100.00
2019-03-21T01:34:09.794Z,100.00
2019-03-21T01:39:28.431Z,100.00
2019-03-21T01:44:47.093Z,100.00
2019-03-21T01:50:08.620Z,100.00
2019-03-21T01:55:31.626Z,100.00
2019-03-21T02:00:53.514Z,100.00
2019-03-21T02:06:12.155Z,100.00
2019-03-21T02:11:50.777Z,100.00
2019-03-21T02:17:10.247Z,100.00
2019-03-21T02:22:48.165Z,100.00
2019-03-21T02:28:06.855Z,100.00
2019-03-21T02:33:30.956Z,100.00
2019-03-21T02:38:53.321Z,100.00
2019-03-21T02:44:16.546Z,100.00
2019-03-21T02:49:35.232Z,100.00
2019-03-21T02:54:55.292Z,100.00
2019-03-21T03:00:36.425Z,100.00
2019-03-21T03:05:56.532Z,100.00
2019-03-21T03:11:24.085Z,100.00
2019-03-21T03:16:43.979Z,100.00
2019-03-21T03:22:24.771Z,100.00
2019-03-21T03:27:48.913Z,100.00
2019-03-21T03:33:08.532Z,100.00
2019-03-21T03:38:28.229Z,100.00
2019-03-21T03:43:49.171Z,100.00
2019-03-21T03:49:29.409Z,100.00
2019-03-21T04:00:10.855Z,100.00
2019-03-21T04:05:30.680Z,100.00
2019-03-21T04:10:51.931Z,100.00
2019-03-21T04:16:10.570Z,100.00
2019-03-21T04:21:29.629Z,100.00
2019-03-21T04:26:48.282Z,100.00
2019-03-21T04:32:07.018Z,100.00
2019-03-21T04:37:27.381Z,100.00
2019-03-21T04:42:47.591Z,100.00
2019-03-21T04:48:07.701Z,100.00
2019-03-21T04:53:29.871Z,100.00
2019-03-21T04:58:49.539Z,100.00
2019-03-21T05:04:08.172Z,100.00
2019-03-21T05:09:31.343Z,100.00
2019-03-21T05:14:51.492Z,100.00
2019-03-21T05:20:14.482Z,100.00
2019-03-21T05:25:35.079Z,100.00
2019-03-21T05:30:57.120Z,100.00
2019-03-21T05:36:41.069Z,100.00
2019-03-21T05:42:02.862Z,100.00
2019-03-21T05:47:23.004Z,100.00
2019-03-21T05:52:42.068Z,100.00
2019-03-21T05:58:00.723Z,100.00
2019-03-21T06:03:28.204Z,100.00
2019-03-21T06:08:46.599Z,100.00
2019-03-21T06:14:05.222Z,100.00
2019-03-21T06:19:26.770Z,100.00
2019-03-21T06:25:08.791Z,100.00
2019-03-21T06:30:30.250Z,100.00
2019-03-21T06:35:53.244Z,100.00
2019-03-21T06:41:13.374Z,100.00
2019-03-21T06:46:33.518Z,92.71
2019-03-21T06:51:53.262Z,88.46
2019-03-21T06:57:13.056Z,91.59
2019-03-21T07:02:37.055Z,84.53
2019-03-21T07:08:00.188Z,87.47
2019-03-21T07:13:21.971Z,71.19
2019-03-21T07:18:41.810Z,73.09
2019-03-21T07:24:01.936Z,67.13
2019-03-21T07:29:22.728Z,63.41
2019-03-21T07:34:43.151Z,64.05
2019-03-21T07:40:01.498Z,61.71
2019-03-21T07:50:40.377Z,58.69
2019-03-21T07:55:59.256Z,60.07
2019-03-21T08:01:18.167Z,54.16
2019-03-21T08:06:37.934Z,55.17
2019-03-21T08:11:58.122Z,55.04
2019-03-21T08:17:18.184Z,50.21
2019-03-21T08:22:38.333Z,45.97
2019-03-21T08:27:57.158Z,45.31
2019-03-21T08:33:16.698Z,45.11
2019-03-21T08:38:39.423Z,44.75
2019-03-21T08:43:59.183Z,47.28
2019-03-21T08:49:20.868Z,49.87
2019-03-21T08:54:39.952Z,47.63
2019-03-21T08:59:59.423Z,43.95
2019-03-21T09:05:18.053Z,46.59
2019-03-21T09:10:36.693Z,48.81
2019-03-21T09:15:59.929Z,47.74
2019-03-21T09:21:20.327Z,49.94
2019-03-21T09:26:41.069Z,50.23
2019-03-21T09:32:01.312Z,49.19
2019-03-21T09:37:21.064Z,53.29
2019-03-21T09:42:39.699Z,50.23
2019-03-21T09:47:59.982Z,47.66
2019-03-21T09:53:18.657Z,47.12
2019-03-21T09:58:40.675Z,48.64
2019-03-21T10:04:00.540Z,49.72
2019-03-21T10:09:19.169Z,50.46
2019-03-21T10:14:37.793Z,46.70
2019-03-21T10:19:57.808Z,48.23
2019-03-21T10:25:17.365Z,52.24
2019-03-21T10:30:40.286Z,52.57
2019-03-21T10:36:01.515Z,49.92
2019-03-21T10:41:20.147Z,53.63
2019-03-21T10:46:39.028Z,49.38
2019-03-21T10:51:58.816Z,46.46
2019-03-21T10:57:18.444Z,47.49
2019-03-21T11:02:57.976Z,49.11
2019-03-21T11:08:18.806Z,51.00
2019-03-21T11:13:39.671Z,52.56
2019-03-21T11:19:01.406Z,49.87
2019-03-21T11:24:21.036Z,49.64
2019-03-21T11:29:41.049Z,51.06
2019-03-21T11:35:01.154Z,51.10
2019-03-21T11:40:19.999Z,47.16
2019-03-21T11:45:42.629Z,48.94
2019-03-21T11:51:01.603Z,49.18
2019-03-21T11:56:20.233Z,46.70
2019-03-21T12:01:39.051Z,44.68
2019-03-21T12:06:59.024Z,43.80
2019-03-21T12:12:21.307Z,45.45
2019-03-21T12:17:39.936Z,44.41
2019-03-21T12:22:58.916Z,44.72
2019-03-21T12:28:17.533Z,44.44
2019-03-21T12:33:38.588Z,47.72
2019-03-21T12:39:00.315Z,44.79
2019-03-21T12:44:18.946Z,44.84
2019-03-21T12:49:38.067Z,45.33
2019-03-21T12:54:57.701Z,45.27
2019-03-21T13:00:17.783Z,47.80
2019-03-21T13:05:38.030Z,47.89
2019-03-21T13:10:56.593Z,48.11
2019-03-21T13:16:15.234Z,43.99
2019-03-21T13:21:33.810Z,46.05
2019-03-21T13:26:54.481Z,44.90
2019-03-21T13:32:12.363Z,44.94
2019-03-21T13:37:32.391Z,46.61
2019-03-21T13:42:51.018Z,45.02
2019-03-21T13:48:10.971Z,45.55
2019-03-21T13:53:29.591Z,47.33
2019-03-21T13:58:48.251Z,47.04
2019-03-21T14:04:09.780Z,45.69
2019-03-21T14:09:26.210Z,45.08
2019-03-21T14:14:45.728Z,45.26
2019-03-21T14:20:09.381Z,45.59
2019-03-21T14:25:28.100Z,46.53
2019-03-21T14:30:47.673Z,46.21
2019-03-21T14:36:07.813Z,45.92
2019-03-21T14:41:26.887Z,46.16
2019-03-21T14:46:45.540Z,47.29
2019-03-21T14:52:04.740Z,48.57
2019-03-21T14:57:26.017Z,45.77
2019-03-21T15:02:44.644Z,46.61
2019-03-21T15:08:03.297Z,46.77
2019-03-21T15:13:24.419Z,46.07
2019-03-21T15:18:43.055Z,46.60
2019-03-21T15:24:02.101Z,46.35
2019-03-21T15:29:20.734Z,47.21
2019-03-21T15:34:39.441Z,46.37
2019-03-21T15:39:58.067Z,45.96
2019-03-21T15:45:23.233Z,45.84
2019-03-21T15:50:42.962Z,47.07
2019-03-21T15:56:22.447Z,47.69
2019-03-21T16:01:46.588Z,47.09
2019-03-21T16:07:05.222Z,46.70
2019-03-21T16:12:25.323Z,47.62
2019-03-21T16:17:44.253Z,48.46
2019-03-21T16:23:05.915Z,49.12
2019-03-21T16:28:29.675Z,48.57
2019-03-21T16:33:51.488Z,48.51
2019-03-21T16:39:10.039Z,48.38
2019-03-21T16:44:29.984Z,48.33
2019-03-21T16:49:51.579Z,47.85
2019-03-21T16:55:12.734Z,48.25
2019-03-21T17:00:32.440Z,48.78
2019-03-21T17:05:57.544Z,48.68
2019-03-21T17:11:17.927Z,49.01
2019-03-21T17:16:39.021Z,51.40
2019-03-21T17:22:16.941Z,51.77
2019-03-21T17:27:37.892Z,53.61
2019-03-21T17:32:56.728Z,52.87
2019-03-21T17:38:16.828Z,54.63
2019-03-21T17:43:54.819Z,54.26
2019-03-21T17:49:14.982Z,54.80
2019-03-21T17:54:41.530Z,58.61
2019-03-21T17:59:56.688Z,58.72
2019-03-21T18:05:16.610Z,59.02
2019-03-21T18:10:36.022Z,60.51
2019-03-21T18:15:54.570Z,60.98
2019-03-21T18:21:15.587Z,64.12
2019-03-21T18:26:35.679Z,65.79
2019-03-21T18:31:54.340Z,66.07
2019-03-21T18:37:17.020Z,66.00
2019-03-21T18:42:40.397Z,68.41
2019-03-21T18:53:20.305Z,70.58
2019-03-21T18:58:42.150Z,72.28
2019-03-21T19:04:01.853Z,73.18
2019-03-21T19:09:20.860Z,73.40
2019-03-21T19:14:40.872Z,74.93
2019-03-21T19:20:02.365Z,76.17
2019-03-21T19:25:25.744Z,77.62
2019-03-21T19:30:40.545Z,79.09
2019-03-21T19:36:01.897Z,79.02
2019-03-21T19:41:23.505Z,79.84
2019-03-21T19:46:42.143Z,80.74
2019-03-21T19:57:22.699Z,83.22
2019-03-21T20:02:42.459Z,83.30
2019-03-21T20:08:07.447Z,83.66
2019-03-21T20:13:19.918Z,85.61
2019-03-21T20:18:41.447Z,86.64
2019-03-21T20:24:20.484Z,87.05
2019-03-21T20:29:39.136Z,87.16
2019-03-21T20:34:57.777Z,88.67
2019-03-21T20:40:21.775Z,88.89
2019-03-21T20:45:43.911Z,89.85
2019-03-21T20:51:02.667Z,91.26
2019-03-21T20:56:23.062Z,90.84
2019-03-21T21:01:41.954Z,91.04
2019-03-21T21:07:04.616Z,91.77
2019-03-21T21:12:23.531Z,94.47
2019-03-21T21:17:43.224Z,94.79
2019-03-21T21:23:03.907Z,95.56
2019-03-21T21:28:24.346Z,95.48
2019-03-21T21:33:42.970Z,95.81
2019-03-21T21:39:01.540Z,97.06
2019-03-21T21:44:39.434Z,98.06
2019-03-21T21:55:21.195Z,99.34
2019-03-21T22:05:58.936Z,99.49
2019-03-21T22:11:36.816Z,99.51
2019-03-21T22:17:00.724Z,100.00
2019-03-21T22:22:19.500Z,100.00
2019-03-21T22:27:39.105Z,99.55
2019-03-21T22:32:57.651Z,100.00
2019-03-21T22:38:16.219Z,100.00
2019-03-21T22:43:38.640Z,100.00
2019-03-21T22:48:57.232Z,100.00
2019-03-21T22:54:15.889Z,100.00
2019-03-21T22:59:34.534Z,100.00
2019-03-21T23:04:55.330Z,100.00
2019-03-21T23:10:14.241Z,100.00
2019-03-21T23:15:37.750Z,100.00
2019-03-21T23:21:00.352Z,100.00
2019-03-21T23:26:20.407Z,100.00
2019-03-21T23:31:39.051Z,100.00
2019-03-21T23:36:59.685Z,100.00
2019-03-21T23:42:18.305Z,100.00
2019-03-21T23:47:38.404Z,100.00
2019-03-21T23:52:59.874Z,100.00
2019-03-21T23:58:18.572Z,100.00
